createdAt,value
2019-02-11T00:00:14.721Z,4.60
2019-02-11T00:01:14.666Z,4.52
2019-02-11T00:02:14.622Z,4.61
2019-02-11T00:03:14.566Z,4.63
2019-02-11T00:04:14.522Z,4.52
2019-02-11T00:05:14.468Z,4.67
2019-02-11T00:06:14.476Z,4.68
2019-02-11T00:07:14.406Z,4.70
2019-02-11T00:08:14.313Z,4.66
2019-02-11T00:09:14.271Z,4.75
2019-02-11T00:10:14.221Z,4.66
2019-02-11T00:11:14.167Z,4.71
2019-02-11T00:12:14.115Z,4.67
2019-02-11T00:13:14.083Z,4.68
2019-02-11T00:14:14.021Z,4.79
2019-02-11T00:15:13.965Z,4.75
2019-02-11T00:16:13.916Z,4.68
2019-02-11T00:17:13.903Z,4.86
2019-02-11T00:18:13.824Z,4.75
2019-02-11T00:19:13.788Z,4.84
2019-02-11T00:20:13.730Z,4.78
2019-02-11T00:21:13.771Z,4.84
2019-02-11T00:22:13.615Z,4.92
2019-02-11T00:23:13.575Z,4.83
2019-02-11T00:24:13.948Z,4.84
2019-02-11T00:25:13.475Z,4.82
2019-02-11T00:26:13.416Z,4.90
2019-02-11T00:27:13.368Z,4.89
2019-02-11T00:28:13.325Z,4.89
2019-02-11T00:29:13.268Z,4.84
2019-02-11T00:30:13.230Z,4.92
2019-02-11T00:31:13.188Z,4.87
2019-02-11T00:32:13.122Z,4.87
2019-02-11T00:33:13.074Z,4.90
2019-02-11T00:34:13.017Z,4.90
2019-02-11T00:35:12.974Z,4.87
2019-02-11T00:36:12.926Z,4.98
2019-02-11T00:37:12.888Z,5.02
2019-02-11T00:38:12.822Z,5.02
2019-02-11T00:39:12.794Z,4.98
2019-02-11T00:40:12.724Z,5.00
2019-02-11T00:41:12.670Z,5.05
2019-02-11T00:42:12.618Z,5.05
2019-02-11T00:43:18.929Z,5.02
2019-02-11T00:44:12.547Z,5.04
2019-02-11T00:45:12.470Z,5.08
2019-02-11T00:46:12.420Z,5.10
2019-02-11T00:47:12.375Z,5.07
2019-02-11T00:48:12.320Z,5.10
2019-02-11T00:49:12.278Z,5.18
2019-02-11T00:50:12.223Z,5.22
2019-02-11T00:51:12.174Z,5.19
2019-02-11T00:52:12.131Z,5.22
2019-02-11T00:53:12.101Z,5.10
2019-02-11T00:54:12.025Z,5.23
2019-02-11T00:55:11.973Z,5.19
2019-02-11T00:56:11.921Z,5.18
2019-02-11T00:57:11.882Z,5.18
2019-02-11T00:58:11.827Z,5.29
2019-02-11T00:59:11.772Z,5.28
2019-02-11T01:00:11.731Z,5.29
2019-02-11T01:01:11.679Z,5.23
2019-02-11T01:02:11.625Z,5.25
2019-02-11T01:03:11.575Z,5.25
2019-02-11T01:04:11.530Z,5.26
2019-02-11T01:05:11.484Z,5.31
2019-02-11T01:06:11.429Z,5.26
2019-02-11T01:07:11.378Z,5.36
2019-02-11T01:08:11.332Z,5.37
2019-02-11T01:09:11.283Z,5.40
2019-02-11T01:10:11.226Z,5.38
2019-02-11T01:11:11.176Z,5.38
2019-02-11T01:12:11.139Z,5.29
2019-02-11T01:13:11.084Z,5.41
2019-02-11T01:14:11.037Z,5.41
2019-02-11T01:15:10.980Z,5.47
2019-02-11T01:16:10.951Z,5.37
2019-02-11T01:17:10.891Z,5.43
2019-02-11T01:18:10.837Z,5.38
2019-02-11T01:19:10.794Z,5.46
2019-02-11T01:20:10.792Z,5.40
2019-02-11T01:21:10.682Z,5.37
2019-02-11T01:22:10.639Z,5.40
2019-02-11T01:23:10.587Z,5.44
2019-02-11T01:24:10.535Z,5.52
2019-02-11T01:25:10.484Z,5.56
2019-02-11T01:26:10.441Z,5.49
2019-02-11T01:27:10.382Z,5.49
2019-02-11T01:28:10.334Z,5.46
2019-02-11T01:29:10.284Z,5.51
2019-02-11T01:30:10.239Z,5.49
2019-02-11T01:31:10.191Z,5.51
2019-02-11T01:32:10.139Z,5.51
2019-02-11T01:33:10.090Z,5.54
2019-02-11T01:34:10.040Z,5.58
2019-02-11T01:35:09.989Z,5.55
2019-02-11T01:36:09.945Z,5.51
2019-02-11T01:37:09.896Z,5.59
2019-02-11T01:38:09.839Z,5.55
2019-02-11T01:39:09.790Z,5.56
2019-02-11T01:40:09.742Z,5.62
2019-02-11T01:41:09.692Z,5.54
2019-02-11T01:42:09.640Z,5.65
2019-02-11T01:43:09.595Z,5.55
2019-02-11T01:44:09.545Z,5.59
2019-02-11T01:45:09.495Z,5.58
2019-02-11T01:46:09.448Z,5.61
2019-02-11T01:47:09.402Z,5.62
2019-02-11T01:48:09.349Z,5.65
2019-02-11T01:49:09.300Z,5.61
2019-02-11T01:50:09.253Z,5.61
2019-02-11T01:51:09.198Z,5.62
2019-02-11T01:52:09.153Z,5.69
2019-02-11T01:53:09.097Z,5.59
2019-02-11T01:54:09.047Z,5.59
2019-02-11T01:55:08.999Z,5.54
2019-02-11T01:56:08.977Z,5.69
2019-02-11T01:57:08.926Z,5.64
2019-02-11T01:58:08.880Z,5.67
2019-02-11T01:59:08.804Z,5.67
2019-02-11T02:00:08.756Z,5.62
2019-02-11T02:01:08.710Z,5.58
2019-02-11T02:02:08.661Z,5.61
2019-02-11T02:03:08.613Z,5.64
2019-02-11T02:04:08.556Z,5.65
2019-02-11T02:05:08.513Z,5.67
2019-02-11T02:06:08.460Z,5.67
2019-02-11T02:07:08.414Z,5.67
2019-02-11T02:08:08.356Z,5.65
2019-02-11T02:09:08.311Z,5.61
2019-02-11T02:10:08.266Z,5.67
2019-02-11T02:11:08.209Z,5.65
2019-02-11T02:12:08.165Z,5.62
2019-02-11T02:13:08.122Z,5.64
2019-02-11T02:14:08.061Z,5.61
2019-02-11T02:15:08.011Z,5.64
2019-02-11T02:16:07.974Z,5.70
2019-02-11T02:17:07.915Z,5.61
2019-02-11T02:18:07.870Z,5.59
2019-02-11T02:19:07.816Z,5.69
2019-02-11T02:20:07.763Z,5.72
2019-02-11T02:21:07.717Z,5.72
2019-02-11T02:22:07.667Z,5.70
2019-02-11T02:23:07.615Z,5.76
2019-02-11T02:24:07.566Z,5.65
2019-02-11T02:25:07.523Z,5.67
2019-02-11T02:26:07.469Z,5.69
2019-02-11T02:27:07.420Z,5.70
2019-02-11T02:28:07.373Z,5.73
2019-02-11T02:29:07.321Z,5.73
2019-02-11T02:30:07.275Z,5.69
2019-02-11T02:31:07.232Z,5.67
2019-02-11T02:32:07.181Z,5.72
2019-02-11T02:33:07.133Z,5.72
2019-02-11T02:34:07.077Z,5.69
2019-02-11T02:35:07.026Z,5.67
2019-02-11T02:36:06.977Z,5.72
2019-02-11T02:37:06.934Z,5.72
2019-02-11T02:38:06.877Z,5.59
2019-02-11T02:39:06.828Z,5.67
2019-02-11T02:40:06.824Z,5.61
2019-02-11T02:41:06.729Z,5.72
2019-02-11T02:42:06.679Z,5.64
2019-02-11T02:43:06.636Z,5.67
2019-02-11T02:44:06.583Z,5.59
2019-02-11T02:45:06.531Z,5.61
2019-02-11T02:46:06.483Z,5.59
2019-02-11T02:47:06.432Z,5.67
2019-02-11T02:48:06.386Z,5.69
2019-02-11T02:49:06.334Z,5.70
2019-02-11T02:50:06.286Z,5.64
2019-02-11T02:51:06.236Z,5.58
2019-02-11T02:52:06.189Z,5.59
2019-02-11T02:53:06.138Z,5.70
2019-02-11T02:54:06.094Z,5.69
2019-02-11T02:55:06.036Z,5.69
2019-02-11T02:56:06.004Z,5.62
2019-02-11T02:57:05.954Z,5.64
2019-02-11T02:58:05.923Z,5.69
2019-02-11T02:59:05.839Z,5.72
2019-02-11T03:00:05.795Z,5.69
2019-02-11T03:01:05.746Z,5.76
2019-02-11T03:02:05.757Z,5.73
2019-02-11T03:03:05.711Z,5.64
2019-02-11T03:04:05.689Z,5.73
2019-02-11T03:05:05.541Z,5.64
2019-02-11T03:06:05.492Z,5.67
2019-02-11T03:07:05.451Z,5.72
2019-02-11T03:08:05.407Z,5.72
2019-02-11T03:09:05.344Z,5.67
2019-02-11T03:10:05.296Z,5.69
2019-02-11T03:11:05.243Z,5.58
2019-02-11T03:12:05.204Z,5.59
2019-02-11T03:13:05.144Z,5.65
2019-02-11T03:14:06.285Z,5.67
2019-02-11T03:15:05.046Z,5.61
2019-02-11T03:16:04.997Z,5.62
2019-02-11T03:17:04.952Z,5.70
2019-02-11T03:18:04.900Z,5.58
2019-02-11T03:19:04.850Z,5.64
2019-02-11T03:20:04.808Z,5.74
2019-02-11T03:21:04.757Z,5.64
2019-02-11T03:22:04.700Z,5.70
2019-02-11T03:23:04.655Z,5.64
2019-02-11T03:24:04.602Z,5.70
2019-02-11T03:25:04.556Z,5.65
2019-02-11T03:26:04.506Z,5.74
2019-02-11T03:27:04.457Z,5.61
2019-02-11T03:28:04.412Z,5.52
2019-02-11T03:29:04.357Z,5.62
2019-02-11T03:30:04.308Z,5.61
2019-02-11T03:31:04.266Z,5.61
2019-02-11T03:32:04.209Z,5.61
2019-02-11T03:33:04.167Z,5.64
2019-02-11T03:34:04.111Z,5.61
2019-02-11T03:35:04.068Z,5.67
2019-02-11T03:36:04.009Z,5.56
2019-02-11T03:37:04.054Z,5.59
2019-02-11T03:38:03.916Z,5.58
2019-02-11T03:39:03.872Z,5.56
2019-02-11T03:40:03.813Z,5.64
2019-02-11T03:41:03.772Z,5.56
2019-02-11T03:42:03.738Z,5.59
2019-02-11T03:43:03.671Z,5.56
2019-02-11T03:44:03.616Z,5.59
2019-02-11T03:45:03.571Z,5.55
2019-02-11T03:46:03.514Z,5.58
2019-02-11T03:47:03.468Z,5.64
2019-02-11T03:48:03.418Z,5.61
2019-02-11T03:49:03.390Z,5.62
2019-02-11T03:50:03.321Z,5.56
2019-02-11T03:51:03.278Z,5.64
2019-02-11T03:52:03.224Z,5.61
2019-02-11T03:53:03.176Z,5.62
2019-02-11T03:54:03.125Z,5.64
2019-02-11T03:55:03.070Z,5.64
2019-02-11T03:56:03.023Z,5.65
2019-02-11T03:57:02.977Z,5.61
2019-02-11T03:58:02.931Z,5.64
2019-02-11T03:59:02.884Z,5.67
2019-02-11T04:00:02.824Z,5.61
2019-02-11T04:01:02.802Z,5.61
2019-02-11T04:02:02.755Z,5.72
2019-02-11T04:03:02.678Z,5.65
2019-02-11T04:04:02.632Z,5.70
2019-02-11T04:05:02.583Z,5.61
2019-02-11T04:06:02.524Z,5.55
2019-02-11T04:07:02.479Z,5.61
2019-02-11T04:08:02.437Z,5.67
2019-02-11T04:09:02.376Z,5.65
2019-02-11T04:10:02.333Z,5.62
2019-02-11T04:11:02.280Z,5.64
2019-02-11T04:12:02.236Z,5.62
2019-02-11T04:13:02.179Z,5.72
2019-02-11T04:14:02.135Z,5.55
2019-02-11T04:15:02.079Z,5.61
2019-02-11T04:16:02.034Z,5.61
2019-02-11T04:17:01.991Z,5.61
2019-02-11T04:18:01.984Z,5.64
2019-02-11T04:19:01.889Z,5.58
2019-02-11T04:20:01.846Z,5.65
2019-02-11T04:21:01.783Z,5.65
2019-02-11T04:22:01.736Z,5.65
2019-02-11T04:23:01.698Z,5.56
2019-02-11T04:24:01.647Z,5.62
2019-02-11T04:25:01.594Z,5.64
2019-02-11T04:26:01.543Z,5.65
2019-02-11T04:27:01.491Z,5.65
2019-02-11T04:28:01.438Z,5.61
2019-02-11T04:29:01.388Z,5.62
2019-02-11T04:30:01.346Z,5.62
2019-02-11T04:31:01.295Z,5.62
2019-02-11T04:32:01.245Z,5.67
2019-02-11T04:33:01.192Z,5.62
2019-02-11T04:34:01.143Z,5.69
2019-02-11T04:35:01.092Z,5.59
2019-02-11T04:36:01.045Z,5.64
2019-02-11T04:37:01.005Z,5.72
2019-02-11T04:38:00.948Z,5.58
2019-02-11T04:39:00.920Z,5.54
2019-02-11T04:40:00.851Z,5.58
2019-02-11T04:41:00.813Z,5.67
2019-02-11T04:42:00.752Z,5.59
2019-02-11T04:43:00.702Z,5.61
2019-02-11T04:44:00.646Z,5.58
2019-02-11T04:45:00.598Z,5.62
2019-02-11T04:46:00.549Z,5.62
2019-02-11T04:47:00.506Z,5.62
2019-02-11T04:48:00.448Z,5.65
2019-02-11T04:49:00.403Z,5.62
2019-02-11T04:50:00.418Z,5.61
2019-02-11T04:51:00.301Z,5.59
2019-02-11T04:52:00.250Z,5.65
2019-02-11T04:53:00.206Z,5.58
2019-02-11T04:54:00.153Z,5.67
2019-02-11T04:55:00.262Z,5.58
2019-02-11T04:56:00.060Z,5.65
2019-02-11T04:57:00.010Z,5.56
2019-02-11T04:57:59.954Z,5.65
2019-02-11T04:58:59.904Z,5.61
2019-02-11T04:59:59.857Z,5.72
2019-02-11T05:00:59.817Z,5.62
2019-02-11T05:01:59.759Z,5.67
2019-02-11T05:02:59.708Z,5.67
2019-02-11T05:03:59.658Z,5.72
2019-02-11T05:04:59.644Z,5.61
2019-02-11T05:05:59.567Z,5.54
2019-02-11T05:06:59.515Z,5.54
2019-02-11T05:07:59.459Z,5.67
2019-02-11T05:08:59.412Z,5.65
2019-02-11T05:09:59.371Z,5.62
2019-02-11T05:10:59.329Z,5.58
2019-02-11T05:11:59.263Z,5.55
2019-02-11T05:12:59.215Z,5.65
2019-02-11T05:13:59.163Z,5.67
2019-02-11T05:14:59.116Z,5.59
2019-02-11T05:15:59.068Z,5.54
2019-02-11T05:16:59.016Z,5.62
2019-02-11T05:17:58.968Z,5.65
2019-02-11T05:18:58.928Z,5.61
2019-02-11T05:19:58.881Z,5.58
2019-02-11T05:20:58.820Z,5.61
2019-02-11T05:21:58.772Z,5.72
2019-02-11T05:22:58.720Z,5.67
2019-02-11T05:23:58.675Z,5.67
2019-02-11T05:24:58.621Z,5.61
2019-02-11T05:25:58.595Z,5.67
2019-02-11T05:26:58.529Z,5.61
2019-02-11T05:27:58.476Z,5.58
2019-02-11T05:28:58.442Z,5.59
2019-02-11T05:29:58.381Z,5.61
2019-02-11T05:30:58.325Z,5.64
2019-02-11T05:31:58.277Z,5.65
2019-02-11T05:32:58.245Z,5.58
2019-02-11T05:33:58.175Z,5.59
2019-02-11T05:34:58.126Z,5.59
2019-02-11T05:35:58.088Z,5.58
2019-02-11T05:36:58.027Z,5.61
2019-02-11T05:37:57.987Z,5.61
2019-02-11T05:38:57.931Z,5.55
2019-02-11T05:39:57.886Z,5.52
2019-02-11T05:40:57.835Z,5.52
2019-02-11T05:41:57.787Z,5.54
2019-02-11T05:42:57.729Z,5.49
2019-02-11T05:43:57.686Z,5.52
2019-02-11T05:44:57.632Z,5.58
2019-02-11T05:45:57.603Z,5.55
2019-02-11T05:46:57.536Z,5.49
2019-02-11T05:47:57.486Z,5.56
2019-02-11T05:48:57.447Z,5.59
2019-02-11T05:49:57.423Z,5.43
2019-02-11T05:50:57.356Z,5.54
2019-02-11T05:51:57.285Z,5.49
2019-02-11T05:52:57.238Z,5.49
2019-02-11T05:53:57.281Z,5.55
2019-02-11T05:54:57.171Z,5.56
2019-02-11T05:55:57.135Z,5.49
2019-02-11T05:56:57.043Z,5.44
2019-02-11T05:57:56.993Z,5.52
2019-02-11T05:58:56.951Z,5.56
2019-02-11T05:59:56.899Z,5.49
2019-02-11T06:00:56.862Z,5.49
2019-02-11T06:01:56.796Z,5.51
2019-02-11T06:02:56.741Z,5.47
2019-02-11T06:03:56.698Z,5.49
2019-02-11T06:04:56.643Z,5.52
2019-02-11T06:05:56.595Z,5.51
2019-02-11T06:06:56.544Z,5.51
2019-02-11T06:07:56.504Z,5.54
2019-02-11T06:08:56.451Z,5.56
2019-02-11T06:09:56.395Z,5.49
2019-02-11T06:10:56.344Z,5.52
2019-02-11T06:11:56.306Z,5.59
2019-02-11T06:12:56.246Z,5.58
2019-02-11T06:13:56.200Z,5.51
2019-02-11T06:15:04.008Z,5.56
2019-02-11T06:15:56.097Z,5.55
2019-02-11T06:16:56.050Z,5.59
2019-02-11T06:17:56.002Z,5.58
2019-02-11T06:18:55.955Z,5.55
2019-02-11T06:19:55.914Z,5.58
2019-02-11T06:20:55.851Z,5.58
2019-02-11T06:21:55.800Z,5.56
2019-02-11T06:22:55.750Z,5.55
2019-02-11T06:23:55.700Z,5.55
2019-02-11T06:24:55.657Z,5.49
2019-02-11T06:25:55.618Z,5.56
2019-02-11T06:26:55.562Z,5.56
2019-02-11T06:27:55.513Z,5.61
2019-02-11T06:28:55.461Z,5.59
2019-02-11T06:29:55.413Z,5.56
2019-02-11T06:30:55.357Z,5.55
2019-02-11T06:31:55.310Z,5.61
2019-02-11T06:32:55.264Z,5.58
2019-02-11T06:33:55.207Z,5.55
2019-02-11T06:34:55.162Z,5.65
2019-02-11T06:35:55.114Z,5.61
2019-02-11T06:36:55.067Z,5.62
2019-02-11T06:37:55.013Z,5.59
2019-02-11T06:38:54.977Z,5.64
2019-02-11T06:39:54.921Z,5.64
2019-02-11T06:40:54.871Z,5.64
2019-02-11T06:41:54.809Z,5.62
2019-02-11T06:42:54.757Z,5.65
2019-02-11T06:43:54.719Z,5.65
2019-02-11T06:44:54.689Z,5.62
2019-02-11T06:45:54.612Z,5.59
2019-02-11T06:46:54.567Z,5.55
2019-02-11T06:47:54.518Z,5.62
2019-02-11T06:48:54.460Z,5.62
2019-02-11T06:49:54.411Z,5.59
2019-02-11T06:50:54.361Z,5.59
2019-02-11T06:51:54.319Z,5.61
2019-02-11T06:52:54.265Z,5.74
2019-02-11T06:53:54.214Z,5.70
2019-02-11T06:54:54.168Z,5.69
2019-02-11T06:55:54.120Z,5.56
2019-02-11T06:56:54.069Z,5.64
2019-02-11T06:57:54.015Z,5.61
2019-02-11T06:58:53.966Z,5.64
2019-02-11T06:59:53.923Z,5.70
2019-02-11T07:00:53.885Z,5.64
2019-02-11T07:01:53.817Z,5.73
2019-02-11T07:02:53.787Z,5.62
2019-02-11T07:03:53.723Z,5.58
2019-02-11T07:04:53.669Z,5.70
2019-02-11T07:05:53.621Z,5.74
2019-02-11T07:06:53.574Z,5.59
2019-02-11T07:07:53.528Z,5.72
2019-02-11T07:08:53.476Z,5.61
2019-02-11T07:09:53.444Z,5.62
2019-02-11T07:10:55.635Z,5.65
2019-02-11T07:11:53.320Z,5.61
2019-02-11T07:12:53.271Z,5.65
2019-02-11T07:13:53.226Z,5.62
2019-02-11T07:14:53.171Z,5.61
2019-02-11T07:15:53.127Z,5.54
2019-02-11T07:16:53.074Z,5.62
2019-02-11T07:17:53.030Z,5.62
2019-02-11T07:18:52.979Z,5.61
2019-02-11T07:19:52.926Z,5.61
2019-02-11T07:20:52.874Z,5.64
2019-02-11T07:21:52.832Z,5.55
2019-02-11T07:22:52.776Z,5.58
2019-02-11T07:23:52.726Z,5.59
2019-02-11T07:24:52.711Z,5.58
2019-02-11T07:25:52.632Z,5.58
2019-02-11T07:26:52.577Z,5.59
2019-02-11T07:27:52.533Z,5.58
2019-02-11T07:28:52.478Z,5.61
2019-02-11T07:29:52.428Z,5.62
2019-02-11T07:30:52.378Z,5.58
2019-02-11T07:31:52.330Z,5.52
2019-02-11T07:32:52.287Z,5.55
2019-02-11T07:33:52.233Z,5.61
2019-02-11T07:34:52.191Z,5.65
2019-02-11T07:35:52.131Z,5.56
2019-02-11T07:36:52.082Z,5.55
2019-02-11T07:37:52.035Z,5.55
2019-02-11T07:38:51.984Z,5.61
2019-02-11T07:39:51.938Z,5.62
2019-02-11T07:40:51.884Z,5.67
2019-02-11T07:41:51.836Z,5.64
2019-02-11T07:42:51.791Z,5.62
2019-02-11T07:43:51.739Z,5.69
2019-02-11T07:44:51.692Z,5.59
2019-02-11T07:45:51.650Z,5.67
2019-02-11T07:46:51.600Z,5.61
2019-02-11T07:47:51.592Z,5.64
2019-02-11T07:48:51.496Z,5.67
2019-02-11T07:49:51.445Z,5.77
2019-02-11T07:50:51.396Z,5.74
2019-02-11T07:51:51.339Z,5.76
2019-02-11T07:52:51.290Z,5.73
2019-02-11T07:53:51.252Z,5.69
2019-02-11T07:54:51.196Z,5.73
2019-02-11T07:55:51.149Z,5.70
2019-02-11T07:56:51.100Z,5.73
2019-02-11T07:57:51.093Z,5.69
2019-02-11T07:58:50.992Z,5.70
2019-02-11T07:59:50.950Z,5.70
2019-02-11T08:00:50.900Z,5.70
2019-02-11T08:01:50.870Z,5.76
2019-02-11T08:02:50.819Z,5.74
2019-02-11T08:03:50.762Z,5.67
2019-02-11T08:04:50.718Z,5.76
2019-02-11T08:05:50.657Z,5.79
2019-02-11T08:06:50.601Z,5.69
2019-02-11T08:07:50.549Z,5.70
2019-02-11T08:08:50.502Z,5.79
2019-02-11T08:09:50.452Z,5.73
2019-02-11T08:10:50.405Z,5.79
2019-02-11T08:11:50.354Z,5.79
2019-02-11T08:12:52.201Z,5.88
2019-02-11T08:13:50.260Z,5.83
2019-02-11T08:14:50.210Z,5.81
2019-02-11T08:15:50.157Z,5.91
2019-02-11T08:16:50.112Z,5.94
2019-02-11T08:17:50.054Z,5.87
2019-02-11T08:18:50.015Z,5.87
2019-02-11T08:19:49.966Z,5.95
2019-02-11T08:20:49.907Z,5.88
2019-02-11T08:21:49.858Z,5.87
2019-02-11T08:22:49.812Z,5.88
2019-02-11T08:23:49.757Z,5.79
2019-02-11T08:24:49.710Z,5.95
2019-02-11T08:25:49.660Z,5.91
2019-02-11T08:26:49.616Z,6.02
2019-02-11T08:27:49.567Z,6.01
2019-02-11T08:28:49.511Z,5.95
2019-02-11T08:29:49.463Z,6.01
2019-02-11T08:30:49.422Z,6.02
2019-02-11T08:31:49.368Z,5.97
2019-02-11T08:32:49.324Z,5.98
2019-02-11T08:33:49.272Z,6.01
2019-02-11T08:34:49.213Z,5.99
2019-02-11T08:35:49.169Z,5.97
2019-02-11T08:36:49.118Z,5.99
2019-02-11T08:37:49.081Z,5.98
2019-02-11T08:38:49.017Z,5.98
2019-02-11T08:39:48.969Z,6.02
2019-02-11T08:40:48.919Z,6.07
2019-02-11T08:41:48.874Z,6.01
2019-02-11T08:42:48.822Z,6.07
2019-02-11T08:43:48.772Z,6.05
2019-02-11T08:44:48.724Z,6.09
2019-02-11T08:45:48.676Z,6.12
2019-02-11T08:46:48.626Z,6.12
2019-02-11T08:47:48.608Z,6.19
2019-02-11T08:48:48.559Z,6.22
2019-02-11T08:49:48.485Z,6.31
2019-02-11T08:50:48.425Z,6.25
2019-02-11T08:51:48.379Z,6.25
2019-02-11T08:52:48.335Z,6.28
2019-02-11T08:53:48.282Z,6.26
2019-02-11T08:54:48.239Z,6.22
2019-02-11T08:55:48.183Z,6.22
2019-02-11T08:56:48.138Z,6.29
2019-02-11T08:57:48.090Z,6.29
2019-02-11T08:58:48.040Z,6.22
2019-02-11T08:59:47.987Z,6.20
2019-02-11T09:00:47.936Z,6.31
2019-02-11T09:01:47.891Z,6.20
2019-02-11T09:02:47.841Z,6.39
2019-02-11T09:03:47.797Z,6.41
2019-02-11T09:04:47.738Z,6.47
2019-02-11T09:05:47.690Z,6.46
2019-02-11T09:06:47.642Z,6.44
2019-02-11T09:07:47.600Z,6.49
2019-02-11T09:08:47.540Z,6.47
2019-02-11T09:09:47.494Z,6.44
2019-02-11T09:10:47.441Z,6.46
2019-02-11T09:11:47.396Z,6.47
2019-02-11T09:12:47.351Z,6.44
2019-02-11T09:13:47.298Z,6.52
2019-02-11T09:14:47.252Z,6.52
2019-02-11T09:15:55.058Z,6.71
2019-02-11T09:16:47.158Z,6.59
2019-02-11T09:17:47.102Z,6.67
2019-02-11T09:18:47.054Z,6.68
2019-02-11T09:19:47.005Z,6.74
2019-02-11T09:20:46.961Z,6.75
2019-02-11T09:21:46.911Z,6.77
2019-02-11T09:22:46.870Z,6.75
2019-02-11T09:23:46.819Z,6.74
2019-02-11T09:24:46.762Z,6.85
2019-02-11T09:25:46.718Z,6.86
2019-02-11T09:26:46.660Z,6.89
2019-02-11T09:27:46.612Z,6.93
2019-02-11T09:28:46.565Z,6.90
2019-02-11T09:29:46.515Z,6.89
2019-02-11T09:30:46.469Z,6.85
2019-02-11T09:31:46.418Z,6.85
2019-02-11T09:32:46.387Z,6.93
2019-02-11T09:33:46.318Z,6.85
2019-02-11T09:34:46.277Z,6.97
2019-02-11T09:35:46.228Z,6.95
2019-02-11T09:36:46.171Z,6.90
2019-02-11T09:37:46.122Z,6.97
2019-02-11T09:38:46.085Z,7.01
2019-02-11T09:39:46.025Z,7.07
2019-02-11T09:40:45.976Z,7.03
2019-02-11T09:41:45.927Z,7.01
2019-02-11T09:42:45.876Z,7.15
2019-02-11T09:43:45.826Z,7.14
2019-02-11T09:44:45.781Z,7.15
2019-02-11T09:45:45.734Z,7.21
2019-02-11T09:46:45.680Z,7.25
2019-02-11T09:47:45.645Z,7.21
2019-02-11T09:48:47.989Z,7.31
2019-02-11T09:49:45.536Z,7.39
2019-02-11T09:50:45.490Z,7.47
2019-02-11T09:51:45.438Z,7.50
2019-02-11T09:52:45.412Z,7.48
2019-02-11T09:53:45.345Z,7.48
2019-02-11T09:54:45.303Z,7.62
2019-02-11T09:55:45.244Z,7.69
2019-02-11T09:56:45.193Z,7.69
2019-02-11T09:57:45.146Z,7.67
2019-02-11T09:58:45.099Z,7.69
2019-02-11T09:59:45.052Z,7.66
2019-02-11T10:00:45.011Z,7.62
2019-02-11T10:01:44.964Z,7.53
2019-02-11T10:02:44.905Z,7.58
2019-02-11T10:03:44.870Z,7.55
2019-02-11T10:04:44.806Z,7.75
2019-02-11T10:05:44.760Z,7.70
2019-02-11T10:06:44.713Z,7.78
2019-02-11T10:07:44.662Z,7.84
2019-02-11T10:08:44.613Z,7.90
2019-02-11T10:09:44.573Z,7.98
2019-02-11T10:10:44.526Z,7.96
2019-02-11T10:11:44.468Z,7.95
2019-02-11T10:12:44.420Z,7.93
2019-02-11T10:13:44.372Z,7.95
2019-02-11T10:14:44.324Z,7.90
2019-02-11T10:15:44.281Z,7.87
2019-02-11T10:16:44.231Z,7.99
2019-02-11T10:17:44.187Z,8.02
2019-02-11T10:18:44.132Z,7.93
2019-02-11T10:19:44.080Z,7.96
2019-02-11T10:20:44.042Z,7.95
2019-02-11T10:21:43.988Z,7.98
2019-02-11T10:22:43.937Z,7.91
2019-02-11T10:23:43.889Z,7.88
2019-02-11T10:24:43.843Z,7.85
2019-02-11T10:25:43.789Z,7.87
2019-02-11T10:26:43.753Z,7.75
2019-02-11T10:27:43.699Z,7.74
2019-02-11T10:28:43.652Z,7.69
2019-02-11T10:29:43.605Z,7.72
2019-02-11T10:30:43.557Z,7.66
2019-02-11T10:31:43.506Z,7.66
2019-02-11T10:32:43.467Z,7.64
2019-02-11T10:33:43.412Z,7.62
2019-02-11T10:34:43.368Z,7.62
2019-02-11T10:35:43.316Z,7.56
2019-02-11T10:36:43.265Z,7.58
2019-02-11T10:37:43.219Z,7.53
2019-02-11T10:38:43.167Z,7.46
2019-02-11T10:39:43.114Z,7.44
2019-02-11T10:40:43.073Z,7.46
2019-02-11T10:41:43.024Z,7.44
2019-02-11T10:42:42.977Z,7.44
2019-02-11T10:43:42.926Z,7.48
2019-02-11T10:44:42.881Z,7.41
2019-02-11T10:45:42.832Z,7.32
2019-02-11T10:46:42.783Z,7.31
2019-02-11T10:47:42.732Z,7.39
2019-02-11T10:48:42.677Z,7.33
2019-02-11T10:49:42.638Z,7.29
2019-02-11T10:50:42.579Z,7.25
2019-02-11T10:51:42.533Z,7.26
2019-02-11T10:52:42.486Z,7.19
2019-02-11T10:53:42.438Z,7.25
2019-02-11T10:54:42.391Z,7.25
2019-02-11T10:55:42.338Z,7.28
2019-02-11T10:56:42.291Z,7.26
2019-02-11T10:57:42.243Z,7.26
2019-02-11T10:58:42.197Z,7.28
2019-02-11T10:59:42.150Z,7.25
2019-02-11T11:00:42.101Z,7.25
2019-02-11T11:01:42.051Z,7.23
2019-02-11T11:02:41.996Z,7.26
2019-02-11T11:03:41.950Z,7.28
2019-02-11T11:04:41.909Z,7.29
2019-02-11T11:05:41.850Z,7.33
2019-02-11T11:06:41.801Z,7.36
2019-02-11T11:07:41.755Z,7.29
2019-02-11T11:08:41.705Z,7.25
2019-02-11T11:09:41.663Z,7.25
2019-02-11T11:10:41.609Z,7.23
2019-02-11T11:11:41.567Z,7.29
2019-02-11T11:12:41.509Z,7.32
2019-02-11T11:13:41.461Z,7.32
2019-02-11T11:14:41.415Z,7.32
2019-02-11T11:15:41.363Z,7.26
2019-02-11T11:16:41.315Z,7.32
2019-02-11T11:17:41.268Z,7.36
2019-02-11T11:18:41.220Z,7.31
2019-02-11T11:19:41.170Z,7.28
2019-02-11T11:20:41.128Z,7.29
2019-02-11T11:21:41.079Z,7.23
2019-02-11T11:22:41.024Z,7.22
2019-02-11T11:23:41.151Z,7.43
2019-02-11T11:24:41.033Z,7.31
2019-02-11T11:25:40.886Z,7.39
2019-02-11T11:26:40.871Z,7.29
2019-02-11T11:27:40.787Z,7.32
2019-02-11T11:28:40.766Z,7.36
2019-02-11T11:29:40.698Z,7.22
2019-02-11T11:30:40.683Z,7.29
2019-02-11T11:31:40.587Z,7.33
2019-02-11T11:32:40.538Z,7.33
2019-02-11T11:33:40.499Z,7.46
2019-02-11T11:34:40.453Z,7.46
2019-02-11T11:35:40.392Z,7.46
2019-02-11T11:36:40.344Z,7.46
2019-02-11T11:37:40.296Z,7.50
2019-02-11T11:38:40.245Z,7.50
2019-02-11T11:39:40.199Z,7.50
2019-02-11T11:40:40.163Z,7.55
2019-02-11T11:41:40.100Z,7.58
2019-02-11T11:42:40.053Z,7.66
2019-02-11T11:43:40.012Z,7.56
2019-02-11T11:44:39.956Z,7.62
2019-02-11T11:45:39.910Z,7.58
2019-02-11T11:46:46.981Z,7.77
2019-02-11T11:47:39.809Z,7.72
2019-02-11T11:48:39.775Z,7.83
2019-02-11T11:49:39.713Z,7.99
2019-02-11T11:50:39.663Z,7.96
2019-02-11T11:51:40.643Z,8.01
2019-02-11T11:52:39.577Z,8.16
2019-02-11T11:53:39.520Z,8.13
2019-02-11T11:54:39.482Z,8.20
2019-02-11T11:55:39.591Z,8.31
2019-02-11T11:56:39.377Z,8.24
2019-02-11T11:57:39.330Z,8.52
2019-02-11T11:58:39.282Z,8.54
2019-02-11T11:59:39.241Z,8.60
2019-02-11T12:00:39.192Z,8.61
2019-02-11T12:01:39.411Z,8.66
2019-02-11T12:02:39.089Z,8.64
2019-02-11T12:03:39.048Z,8.74
2019-02-11T12:04:39.191Z,8.75
2019-02-11T12:05:39.164Z,8.79
2019-02-11T12:06:38.898Z,8.95
2019-02-11T12:07:38.875Z,8.90
2019-02-11T12:08:39.042Z,8.97
2019-02-11T12:09:38.763Z,8.97
2019-02-11T12:10:38.819Z,9.13
2019-02-11T12:11:38.735Z,9.12
2019-02-11T12:12:38.631Z,9.11
2019-02-11T12:13:38.912Z,9.19
2019-02-11T12:14:38.509Z,9.24
2019-02-11T12:15:38.587Z,9.08
2019-02-11T12:16:55.491Z,9.15
2019-02-11T12:17:38.371Z,9.15
2019-02-11T12:18:38.335Z,9.11
2019-02-11T12:19:38.279Z,9.03
2019-02-11T12:20:38.224Z,9.02
2019-02-11T12:21:38.195Z,8.99
2019-02-11T12:22:38.132Z,9.02
2019-02-11T12:23:38.099Z,8.87
2019-02-11T12:24:38.043Z,8.89
2019-02-11T12:25:38.237Z,8.86
2019-02-11T12:26:38.017Z,8.93
2019-02-11T12:27:38.020Z,8.86
2019-02-11T12:28:37.898Z,8.84
2019-02-11T12:29:37.896Z,8.81
2019-02-11T12:30:37.785Z,8.74
2019-02-11T12:31:37.780Z,8.72
2019-02-11T12:32:37.791Z,8.64
2019-02-11T12:33:37.674Z,8.66
2019-02-11T12:34:37.657Z,8.64
2019-02-11T12:35:37.552Z,8.61
2019-02-11T12:36:37.535Z,8.61
2019-02-11T12:37:37.536Z,8.66
2019-02-11T12:38:37.415Z,8.56
2019-02-11T12:39:37.440Z,8.49
2019-02-11T12:40:37.308Z,8.50
2019-02-11T12:41:37.294Z,8.50
2019-02-11T12:42:37.304Z,8.45
2019-02-11T12:43:37.172Z,8.41
2019-02-11T12:44:37.249Z,8.44
2019-02-11T12:45:37.059Z,8.42
2019-02-11T12:46:37.049Z,8.31
2019-02-11T12:47:37.049Z,8.31
2019-02-11T12:48:36.931Z,8.32
2019-02-11T12:49:36.953Z,8.31
2019-02-11T12:50:36.890Z,8.39
2019-02-11T12:51:36.811Z,8.45
2019-02-11T12:52:36.811Z,8.52
2019-02-11T12:53:36.695Z,8.66
2019-02-11T12:54:36.700Z,8.60
2019-02-11T12:55:36.571Z,8.60
2019-02-11T12:56:36.566Z,8.68
2019-02-11T12:57:36.606Z,8.75
2019-02-11T12:58:36.447Z,8.75
2019-02-11T12:59:36.446Z,8.79
2019-02-11T13:00:36.338Z,8.92
2019-02-11T13:01:36.328Z,8.96
2019-02-11T13:02:36.335Z,9.02
2019-02-11T13:03:36.214Z,9.03
2019-02-11T13:04:36.210Z,9.12
2019-02-11T13:05:44.714Z,9.11
2019-02-11T13:06:36.087Z,9.08
2019-02-11T13:07:36.087Z,9.02
2019-02-11T13:08:36.243Z,8.96
2019-02-11T13:09:35.968Z,9.02
2019-02-11T13:10:35.848Z,8.95
2019-02-11T13:11:35.847Z,8.92
2019-02-11T13:12:35.857Z,8.96
2019-02-11T13:13:35.742Z,8.90
2019-02-11T13:14:35.728Z,8.86
2019-02-11T13:15:58.758Z,8.97
2019-02-11T13:16:35.606Z,8.92
2019-02-11T13:17:35.609Z,8.87